createdAt,value
2019-02-09T00:02:06.199Z,58.73
2019-02-09T00:04:37.868Z,58.87
2019-02-09T00:07:09.393Z,52.48
2019-02-09T00:09:42.258Z,59.25
2019-02-09T00:12:13.643Z,60.03
2019-02-09T00:14:44.959Z,57.17
2019-02-09T00:17:16.241Z,53.40
2019-02-09T00:19:47.543Z,52.58
2019-02-09T00:22:18.832Z,59.03
2019-02-09T00:24:50.133Z,52.05
2019-02-09T00:27:21.431Z,48.30
2019-02-09T00:29:52.743Z,47.98
2019-02-09T00:32:24.042Z,41.45
2019-02-09T00:34:55.360Z,53.40
2019-02-09T00:37:27.702Z,53.58
2019-02-09T00:39:58.964Z,51.42
2019-02-09T00:42:30.284Z,53.70
2019-02-09T00:45:03.688Z,60.50
2019-02-09T00:47:35.309Z,66.53
2019-02-09T00:50:07.837Z,68.02
2019-02-09T00:52:39.257Z,62.10
2019-02-09T00:55:11.478Z,65.40
2019-02-09T00:57:43.170Z,66.22
2019-02-09T01:00:20.784Z,69.65
2019-02-09T01:02:52.191Z,58.25
2019-02-09T01:05:28.151Z,65.55
2019-02-09T01:07:59.698Z,60.40
2019-02-09T01:10:35.036Z,58.73
2019-02-09T01:13:07.787Z,55.43
2019-02-09T01:15:39.598Z,60.50
2019-02-09T01:18:10.909Z,56.68
2019-02-09T01:20:42.212Z,59.18
2019-02-09T01:23:13.538Z,55.50
2019-02-09T01:25:44.875Z,63.95
2019-02-09T01:28:16.186Z,50.23
2019-02-09T01:30:47.570Z,51.23
2019-02-09T01:33:18.896Z,52.43
2019-02-09T01:35:50.610Z,48.28
2019-02-09T01:38:22.106Z,52.10
2019-02-09T01:40:53.410Z,55.65
2019-02-09T01:43:24.761Z,57.83
2019-02-09T01:45:56.059Z,50.03
2019-02-09T01:48:27.322Z,55.08
2019-02-09T01:50:58.751Z,55.25
2019-02-09T01:53:30.017Z,52.55
2019-02-09T01:56:02.817Z,51.30
2019-02-09T01:58:34.078Z,54.67
2019-02-09T02:01:06.423Z,49.00
2019-02-09T02:03:37.696Z,50.08
2019-02-09T02:06:09.126Z,53.35
2019-02-09T02:08:40.388Z,49.40
2019-02-09T02:11:11.869Z,47.80
2019-02-09T02:13:43.569Z,54.10
2019-02-09T02:16:15.013Z,55.50
2019-02-09T02:18:46.264Z,56.63
2019-02-09T02:21:17.566Z,54.93
2019-02-09T02:23:48.840Z,57.43
2019-02-09T02:26:20.135Z,59.03
2019-02-09T02:28:51.409Z,60.98
2019-02-09T02:31:22.724Z,53.60
2019-02-09T02:33:54.087Z,56.23
2019-02-09T02:36:26.576Z,55.08
2019-02-09T02:38:58.885Z,52.78
2019-02-09T02:41:30.186Z,52.53
2019-02-09T02:44:01.496Z,55.23
2019-02-09T02:46:32.805Z,60.43
2019-02-09T02:49:04.246Z,61.28
2019-02-09T02:51:35.499Z,56.95
2019-02-09T02:54:06.830Z,62.85
2019-02-09T02:56:38.095Z,66.42
2019-02-09T02:59:09.521Z,58.10
2019-02-09T03:01:40.850Z,53.28
2019-02-09T03:04:12.319Z,54.25
2019-02-09T03:06:44.040Z,54.38
2019-02-09T03:09:15.303Z,55.20
2019-02-09T03:11:46.608Z,60.55
2019-02-09T03:14:18.438Z,63.50
2019-02-09T03:16:49.759Z,58.90
2019-02-09T03:19:21.012Z,51.58
2019-02-09T03:21:52.323Z,57.00
2019-02-09T03:24:23.610Z,51.85
2019-02-09T03:26:54.907Z,54.00
2019-02-09T03:29:26.264Z,53.92
2019-02-09T03:31:57.567Z,51.55
2019-02-09T03:34:28.954Z,54.88
2019-02-09T03:37:00.235Z,53.90
2019-02-09T03:39:34.302Z,55.80
2019-02-09T03:42:08.013Z,51.53
2019-02-09T03:44:39.420Z,49.77
2019-02-09T03:47:10.803Z,57.55
2019-02-09T03:49:42.110Z,55.40
2019-02-09T03:52:13.546Z,53.08
2019-02-09T03:54:44.836Z,55.28
2019-02-09T03:57:40.142Z,56.37
2019-02-09T04:00:15.572Z,57.30
2019-02-09T04:02:46.981Z,55.28
2019-02-09T04:05:19.041Z,55.40
2019-02-09T04:07:50.572Z,54.53
2019-02-09T04:10:23.812Z,49.18
2019-02-09T04:12:55.346Z,52.80
2019-02-09T04:15:28.297Z,50.63
2019-02-09T04:17:59.665Z,55.38
2019-02-09T04:20:30.990Z,50.00
2019-02-09T04:23:05.984Z,50.25
2019-02-09T04:25:37.432Z,54.08
2019-02-09T04:28:08.845Z,55.10
2019-02-09T04:30:40.179Z,64.95
2019-02-09T04:33:11.634Z,61.40
2019-02-09T04:35:42.972Z,55.80
2019-02-09T04:38:14.280Z,58.08
2019-02-09T04:40:45.621Z,54.38
2019-02-09T04:43:17.006Z,53.20
2019-02-09T04:45:50.793Z,58.25
2019-02-09T04:48:22.084Z,58.35
2019-02-09T04:50:53.420Z,54.90
2019-02-09T04:53:24.772Z,53.42
2019-02-09T04:55:56.474Z,52.58
2019-02-09T04:58:27.788Z,53.73
2019-02-09T05:00:59.238Z,50.20
2019-02-09T05:03:30.511Z,52.73
2019-02-09T05:06:02.380Z,45.17
2019-02-09T05:08:33.721Z,47.40
2019-02-09T05:11:05.173Z,42.35
2019-02-09T05:13:36.443Z,48.50
2019-02-09T05:16:07.882Z,46.42
2019-02-09T05:18:39.147Z,48.02
2019-02-09T05:21:10.521Z,46.77
2019-02-09T05:23:41.881Z,59.60
2019-02-09T05:26:13.202Z,52.78
2019-02-09T05:28:48.158Z,55.63
2019-02-09T05:31:23.176Z,54.85
2019-02-09T05:33:52.582Z,53.95
2019-02-09T05:36:24.364Z,51.70
2019-02-09T05:38:55.662Z,55.98
2019-02-09T05:41:27.444Z,51.53
2019-02-09T05:44:00.242Z,49.90
2019-02-09T05:46:31.665Z,49.93
2019-02-09T05:49:02.968Z,49.23
2019-02-09T05:51:34.256Z,44.08
2019-02-09T05:54:05.670Z,45.38
2019-02-09T05:56:37.306Z,47.20
2019-02-09T05:59:08.618Z,24.63
2019-02-09T06:01:41.361Z,26.12
2019-02-09T06:04:12.680Z,19.15
2019-02-09T06:06:44.101Z,22.60
2019-02-09T06:09:15.904Z,33.65
2019-02-09T06:11:47.178Z,37.73
2019-02-09T06:14:19.781Z,37.75
2019-02-09T06:16:51.088Z,32.08
2019-02-09T06:19:22.359Z,29.15
2019-02-09T06:21:53.668Z,34.55
2019-02-09T06:24:25.028Z,33.63
2019-02-09T06:26:56.365Z,38.67
2019-02-09T06:29:27.728Z,32.73
2019-02-09T06:31:59.195Z,32.33
2019-02-09T06:34:30.886Z,31.23
2019-02-09T06:37:03.214Z,28.20
2019-02-09T06:39:34.485Z,25.72
2019-02-09T06:42:09.063Z,31.57
2019-02-09T06:44:40.327Z,18.60
2019-02-09T06:47:11.641Z,16.60
2019-02-09T06:49:42.945Z,15.68
2019-02-09T06:52:14.270Z,16.32
2019-02-09T06:54:45.558Z,16.55
2019-02-09T06:57:16.860Z,19.07
2019-02-09T06:59:48.163Z,12.60
2019-02-09T07:02:19.479Z,12.95
2019-02-09T07:04:50.802Z,11.33
2019-02-09T07:07:22.091Z,12.13
2019-02-09T07:09:53.439Z,12.63
2019-02-09T07:12:24.792Z,19.30
2019-02-09T07:14:56.058Z,19.90
2019-02-09T07:17:27.386Z,16.70
2019-02-09T07:19:58.717Z,19.67
2019-02-09T07:22:30.002Z,26.48
2019-02-09T07:25:01.736Z,28.20
2019-02-09T07:27:33.211Z,26.10
2019-02-09T07:30:07.327Z,23.25
2019-02-09T07:32:38.647Z,20.80
2019-02-09T07:35:11.718Z,24.77
2019-02-09T07:37:43.170Z,22.60
2019-02-09T07:40:16.104Z,20.95
2019-02-09T07:42:47.512Z,26.62
2019-02-09T07:45:21.225Z,25.60
2019-02-09T07:47:52.687Z,19.35
2019-02-09T07:50:25.564Z,21.30
2019-02-09T07:52:56.978Z,20.68
2019-02-09T07:55:28.701Z,20.90
2019-02-09T07:57:59.992Z,24.85
2019-02-09T08:00:31.498Z,24.87
2019-02-09T08:03:03.408Z,25.95
2019-02-09T08:05:35.199Z,26.10
2019-02-09T08:08:06.918Z,23.98
2019-02-09T08:10:38.469Z,23.07
2019-02-09T08:13:09.832Z,27.60
2019-02-09T08:15:41.146Z,24.32
2019-02-09T08:18:12.576Z,21.42
2019-02-09T08:20:43.925Z,20.92
2019-02-09T08:23:15.871Z,17.27
2019-02-09T08:25:47.345Z,19.98
2019-02-09T08:28:18.683Z,17.98
2019-02-09T08:30:50.892Z,21.48
2019-02-09T08:33:22.361Z,17.02
2019-02-09T08:35:53.925Z,16.87
2019-02-09T08:38:26.299Z,19.55
2019-02-09T08:40:57.619Z,18.12
2019-02-09T08:43:28.967Z,19.70
2019-02-09T08:46:00.278Z,18.37
2019-02-09T08:48:31.940Z,13.32
2019-02-09T08:51:07.071Z,16.20
2019-02-09T08:53:38.442Z,15.70
2019-02-09T08:56:09.771Z,12.00
2019-02-09T08:58:41.035Z,10.30
2019-02-09T09:01:12.345Z,7.58
2019-02-09T09:03:43.602Z,6.20
2019-02-09T09:06:14.902Z,8.98
2019-02-09T09:08:46.198Z,10.15
2019-02-09T09:11:17.920Z,16.30
2019-02-09T09:13:50.172Z,11.18
2019-02-09T09:16:21.521Z,7.90
2019-02-09T09:18:52.786Z,5.53
2019-02-09T09:21:24.089Z,6.75
2019-02-09T09:23:55.379Z,7.45
2019-02-09T09:26:26.833Z,5.00
2019-02-09T09:28:58.210Z,4.37
2019-02-09T09:31:29.759Z,3.90
2019-02-09T09:34:03.827Z,6.35
2019-02-09T09:36:35.187Z,4.28
2019-02-09T09:39:09.556Z,4.25
2019-02-09T09:41:40.861Z,5.08
2019-02-09T09:44:12.167Z,5.40
2019-02-09T09:46:43.411Z,4.47
2019-02-09T09:49:14.724Z,4.08
2019-02-09T09:51:46.296Z,5.83
2019-02-09T09:54:17.606Z,13.48
2019-02-09T09:56:48.930Z,7.45
2019-02-09T09:59:20.240Z,7.20
2019-02-09T10:01:51.520Z,7.67
2019-02-09T10:04:22.956Z,8.00
2019-02-09T10:06:54.246Z,8.58
2019-02-09T10:09:25.836Z,6.65
2019-02-09T10:11:57.109Z,11.20
2019-02-09T10:14:28.889Z,10.23
2019-02-09T10:17:00.289Z,8.88
2019-02-09T10:19:35.964Z,10.08
2019-02-09T10:22:07.479Z,10.32
2019-02-09T10:24:38.826Z,12.50
2019-02-09T10:27:13.222Z,14.73
2019-02-09T10:29:44.611Z,15.15
2019-02-09T10:32:16.298Z,13.70
2019-02-09T10:34:47.593Z,12.37
2019-02-09T10:37:18.938Z,10.90
2019-02-09T10:39:50.231Z,9.90
2019-02-09T10:42:24.754Z,11.40
2019-02-09T10:44:56.028Z,14.45
2019-02-09T10:47:28.316Z,12.05
2019-02-09T10:49:59.615Z,9.98
2019-02-09T10:52:30.933Z,11.50
2019-02-09T10:55:05.026Z,9.68
2019-02-09T10:57:36.399Z,12.10
2019-02-09T11:00:13.179Z,12.45
2019-02-09T11:02:51.896Z,10.23
2019-02-09T11:05:17.911Z,11.22
2019-02-09T11:07:50.013Z,9.93
2019-02-09T11:10:22.793Z,9.03
2019-02-09T11:12:54.518Z,7.33
2019-02-09T11:15:26.668Z,7.42
2019-02-09T11:17:57.950Z,8.85
2019-02-09T11:20:29.291Z,8.65
2019-02-09T11:23:00.579Z,8.03
2019-02-09T11:25:32.435Z,5.80
2019-02-09T11:28:03.882Z,4.60
2019-02-09T11:30:38.698Z,9.15
2019-02-09T11:33:09.989Z,5.70
2019-02-09T11:35:41.254Z,6.62
2019-02-09T11:38:12.599Z,6.22
2019-02-09T11:40:43.858Z,7.62
2019-02-09T11:43:15.186Z,8.60
2019-02-09T11:45:46.640Z,7.90
2019-02-09T11:48:17.928Z,6.58
2019-02-09T11:50:51.748Z,4.97
2019-02-09T11:53:23.431Z,6.67
2019-02-09T11:55:55.128Z,6.87
2019-02-09T11:58:26.434Z,7.62
2019-02-09T12:00:57.699Z,7.55
2019-02-09T12:03:29.183Z,8.95
2019-02-09T12:06:00.489Z,8.83
2019-02-09T12:08:31.796Z,9.50
2019-02-09T12:11:04.797Z,11.60
2019-02-09T12:13:36.092Z,11.70
2019-02-09T12:16:07.507Z,6.92
2019-02-09T12:18:38.841Z,7.22
2019-02-09T12:21:10.569Z,6.90
2019-02-09T12:23:41.869Z,6.78
2019-02-09T12:26:13.222Z,6.05
2019-02-09T12:28:44.602Z,6.25
2019-02-09T12:31:15.914Z,11.60
2019-02-09T12:33:47.271Z,6.80
2019-02-09T12:36:18.657Z,7.92
2019-02-09T12:38:49.962Z,5.55
2019-02-09T12:41:21.290Z,4.60
2019-02-09T12:43:55.269Z,4.45
2019-02-09T12:46:26.964Z,7.37
2019-02-09T12:48:58.279Z,5.00
2019-02-09T12:51:29.810Z,6.53
2019-02-09T12:54:02.576Z,4.50
2019-02-09T12:56:33.871Z,4.60
2019-02-09T12:59:14.725Z,4.30
2019-02-09T13:01:41.935Z,3.80
2019-02-09T13:04:13.229Z,3.40
2019-02-09T13:06:44.528Z,3.58
2019-02-09T13:09:15.800Z,3.40
2019-02-09T13:11:50.220Z,3.05
2019-02-09T13:14:21.536Z,5.40
2019-02-09T13:16:52.873Z,2.95
2019-02-09T13:19:24.481Z,3.60
2019-02-09T13:21:56.146Z,5.85
2019-02-09T13:24:29.985Z,7.08
2019-02-09T13:27:02.457Z,7.30
2019-02-09T13:29:33.780Z,6.75
2019-02-09T13:32:06.271Z,10.68
2019-02-09T13:34:37.578Z,9.25
2019-02-09T13:37:09.180Z,7.37
2019-02-09T13:39:40.481Z,4.28
2019-02-09T13:42:11.839Z,5.87
2019-02-09T13:44:43.324Z,5.70
2019-02-09T13:47:17.601Z,6.85
2019-02-09T13:49:48.863Z,9.35
2019-02-09T13:52:20.248Z,6.50
2019-02-09T13:54:51.680Z,7.33
2019-02-09T13:57:22.964Z,5.97
2019-02-09T13:59:54.237Z,7.05
2019-02-09T14:02:25.570Z,6.70
2019-02-09T14:04:56.875Z,9.10
2019-02-09T14:07:28.146Z,7.85
2019-02-09T14:09:59.429Z,10.10
2019-02-09T14:12:32.902Z,9.58
2019-02-09T14:15:05.086Z,8.25
2019-02-09T14:17:37.562Z,6.90
2019-02-09T14:20:10.259Z,6.92
2019-02-09T14:22:41.620Z,12.50
2019-02-09T14:25:13.199Z,5.70
2019-02-09T14:27:47.703Z,7.47
2019-02-09T14:30:22.046Z,6.55
2019-02-09T14:32:53.666Z,4.92
2019-02-09T14:35:25.200Z,8.80
2019-02-09T14:37:56.631Z,9.83
2019-02-09T14:40:30.518Z,7.53
2019-02-09T14:43:03.593Z,5.80
2019-02-09T14:45:37.133Z,8.55
2019-02-09T14:48:08.705Z,8.13
2019-02-09T14:50:40.193Z,6.28
2019-02-09T14:53:11.715Z,5.05
2019-02-09T14:55:42.976Z,4.50
2019-02-09T14:58:14.435Z,6.37
2019-02-09T15:00:48.523Z,5.87
2019-02-09T15:03:26.192Z,6.37
2019-02-09T15:05:52.926Z,7.50
2019-02-09T15:08:24.253Z,5.50
2019-02-09T15:10:55.559Z,6.90
2019-02-09T15:13:26.851Z,4.58
2019-02-09T15:16:48.133Z,6.58
2019-02-09T15:19:23.064Z,5.50
2019-02-09T15:21:54.358Z,6.62
2019-02-09T15:24:25.691Z,4.40
2019-02-09T15:26:56.959Z,5.30
2019-02-09T15:29:28.503Z,4.62
2019-02-09T15:31:59.803Z,6.75
2019-02-09T15:34:31.170Z,8.08
2019-02-09T15:37:04.813Z,6.90
2019-02-09T15:39:36.105Z,7.80
2019-02-09T15:42:07.610Z,17.90
2019-02-09T15:44:40.298Z,11.08
2019-02-09T15:47:13.240Z,11.88
2019-02-09T15:49:44.599Z,8.90
2019-02-09T15:52:16.423Z,10.28
2019-02-09T15:54:47.730Z,10.18
2019-02-09T15:57:20.475Z,8.45
2019-02-09T15:59:52.211Z,11.55
2019-02-09T16:02:26.894Z,8.00
2019-02-09T16:04:58.283Z,5.75
2019-02-09T16:07:29.890Z,9.23
2019-02-09T16:10:01.671Z,17.07
2019-02-09T16:12:33.071Z,9.98
2019-02-09T16:15:05.309Z,8.93
2019-02-09T16:17:36.872Z,11.60
2019-02-09T16:20:09.638Z,11.70
2019-02-09T16:22:41.364Z,11.85
2019-02-09T16:25:12.811Z,17.85
2019-02-09T16:27:44.658Z,24.45
2019-02-09T16:30:20.282Z,19.85
2019-02-09T16:32:52.279Z,19.20
2019-02-09T16:35:24.396Z,27.02
2019-02-09T16:37:55.715Z,22.73
2019-02-09T16:40:28.575Z,20.60
2019-02-09T16:43:00.279Z,27.42
2019-02-09T16:45:33.879Z,21.65
2019-02-09T16:48:06.712Z,19.00
2019-02-09T16:50:38.069Z,23.18
2019-02-09T16:53:09.390Z,18.73
2019-02-09T16:55:40.800Z,17.57
2019-02-09T16:58:13.282Z,22.70
2019-02-09T17:00:45.566Z,18.67
2019-02-09T17:03:16.858Z,12.78
2019-02-09T17:05:49.235Z,14.10
2019-02-09T17:08:20.565Z,10.03
2019-02-09T17:10:53.377Z,14.83
2019-02-09T17:13:24.858Z,16.35
2019-02-09T17:15:56.377Z,10.88
2019-02-09T17:18:27.670Z,10.28
2019-02-09T17:20:58.926Z,8.03
2019-02-09T17:23:30.232Z,8.43
2019-02-09T17:26:02.368Z,11.25
2019-02-09T17:28:33.891Z,7.55
2019-02-09T17:31:05.465Z,8.28
2019-02-09T17:33:37.950Z,9.90
2019-02-09T17:36:09.251Z,7.37
2019-02-09T17:38:40.576Z,6.45
2019-02-09T17:41:11.977Z,6.37
2019-02-09T17:43:43.285Z,9.75
2019-02-09T17:46:16.699Z,9.00
2019-02-09T17:48:49.003Z,11.22
2019-02-09T17:51:20.426Z,7.95
2019-02-09T17:53:51.723Z,10.75
2019-02-09T17:56:23.326Z,9.73
2019-02-09T17:58:55.027Z,9.50
2019-02-09T18:01:26.343Z,13.75
2019-02-09T18:03:57.653Z,11.20
2019-02-09T18:06:31.257Z,9.53
2019-02-09T18:09:03.798Z,11.50
2019-02-09T18:11:38.014Z,10.25
2019-02-09T18:14:10.838Z,8.78
2019-02-09T18:16:42.120Z,11.45
2019-02-09T18:19:13.420Z,7.55
2019-02-09T18:21:44.734Z,10.88
2019-02-09T18:24:16.057Z,10.15
2019-02-09T18:26:47.891Z,9.83
2019-02-09T18:29:19.280Z,11.43
2019-02-09T18:31:50.612Z,9.10
2019-02-09T18:34:24.474Z,9.20
2019-02-09T18:36:55.856Z,9.20
2019-02-09T18:39:27.257Z,9.65
2019-02-09T18:41:58.758Z,6.95
2019-02-09T18:44:30.067Z,7.15
2019-02-09T18:47:03.856Z,9.98
2019-02-09T18:49:37.402Z,8.13
2019-02-09T18:52:08.712Z,7.47
2019-02-09T18:54:40.149Z,7.33
2019-02-09T18:57:11.470Z,6.53
2019-02-09T18:59:45.621Z,8.78
2019-02-09T19:02:17.009Z,11.33
2019-02-09T19:04:48.364Z,10.85
2019-02-09T19:07:20.639Z,6.60
2019-02-09T19:09:52.505Z,10.28
2019-02-09T19:12:23.905Z,9.75
2019-02-09T19:14:55.335Z,13.13
2019-02-09T19:17:26.639Z,10.93
2019-02-09T19:19:57.930Z,12.63
2019-02-09T19:22:29.233Z,8.95
2019-02-09T19:25:01.699Z,15.18
2019-02-09T19:27:33.032Z,11.68
2019-02-09T19:30:06.045Z,13.60
2019-02-09T19:32:37.907Z,10.75
2019-02-09T19:35:12.011Z,10.98
2019-02-09T19:37:42.592Z,14.18
2019-02-09T19:40:15.201Z,11.25
2019-02-09T19:42:50.105Z,12.18
2019-02-09T19:45:23.909Z,12.20
2019-02-09T19:47:55.269Z,14.25
2019-02-09T19:50:26.642Z,9.85
2019-02-09T19:52:57.954Z,15.68
2019-02-09T19:55:30.037Z,10.53
2019-02-09T19:58:02.312Z,15.20
2019-02-09T20:00:35.541Z,13.03
2019-02-09T20:03:08.020Z,12.05
2019-02-09T20:05:39.301Z,9.15
2019-02-09T20:08:10.849Z,12.75
2019-02-09T20:10:42.514Z,10.40
2019-02-09T20:13:13.964Z,8.90
2019-02-09T20:15:45.252Z,10.63
2019-02-09T20:18:16.599Z,12.95
2019-02-09T20:20:48.263Z,13.60
2019-02-09T20:23:19.578Z,13.80
2019-02-09T20:25:50.893Z,12.15
2019-02-09T20:28:22.146Z,13.68
2019-02-09T20:30:53.464Z,9.68
2019-02-09T20:33:24.846Z,10.50
2019-02-09T20:35:56.193Z,12.73
2019-02-09T20:38:27.495Z,17.30
2019-02-09T20:41:06.065Z,13.40
2019-02-09T20:43:37.367Z,10.98
2019-02-09T20:46:08.885Z,12.10
2019-02-09T20:48:40.179Z,10.15
2019-02-09T20:51:11.636Z,8.80
2019-02-09T20:53:43.211Z,11.60
2019-02-09T20:56:14.475Z,10.48
2019-02-09T20:58:46.286Z,9.48
2019-02-09T21:01:18.461Z,12.50
2019-02-09T21:03:49.802Z,14.98
2019-02-09T21:06:21.153Z,14.40
2019-02-09T21:08:53.724Z,12.33
2019-02-09T21:11:25.039Z,9.00
2019-02-09T21:13:56.392Z,11.18
2019-02-09T21:16:27.694Z,10.82
2019-02-09T21:18:59.063Z,9.45
2019-02-09T21:21:31.386Z,17.52
2019-02-09T21:24:03.913Z,12.75
2019-02-09T21:26:35.673Z,16.65
2019-02-09T21:29:06.994Z,14.65
2019-02-09T21:31:38.345Z,16.70
2019-02-09T21:34:09.689Z,16.62
2019-02-09T21:36:43.202Z,10.43
2019-02-09T21:39:14.641Z,11.85
2019-02-09T21:41:45.912Z,11.43
2019-02-09T21:44:17.223Z,13.75
2019-02-09T21:46:48.777Z,17.90
2019-02-09T21:49:20.235Z,15.40
2019-02-09T21:51:51.580Z,15.78
2019-02-09T21:54:25.403Z,14.90
2019-02-09T21:56:57.375Z,13.70
2019-02-09T21:59:28.644Z,17.10
2019-02-09T22:02:02.256Z,16.17
2019-02-09T22:04:33.586Z,11.60
2019-02-09T22:07:05.089Z,11.35
2019-02-09T22:09:36.414Z,11.40
2019-02-09T22:12:07.758Z,12.90
2019-02-09T22:14:39.320Z,13.43
2019-02-09T22:17:10.590Z,14.58
2019-02-09T22:19:42.090Z,12.43
2019-02-09T22:22:13.395Z,6.90
2019-02-09T22:24:44.742Z,13.90
2019-02-09T22:27:16.073Z,11.03
2019-02-09T22:29:47.492Z,13.90
2019-02-09T22:32:18.807Z,9.83
2019-02-09T22:34:50.064Z,16.67
2019-02-09T22:37:21.507Z,12.15
2019-02-09T22:39:52.859Z,8.23
2019-02-09T22:42:24.186Z,12.58
2019-02-09T22:44:55.512Z,11.20
2019-02-09T22:47:27.267Z,12.55
2019-02-09T22:49:58.733Z,10.43
2019-02-09T22:52:30.082Z,13.65
2019-02-09T22:55:03.296Z,9.03
2019-02-09T22:57:34.625Z,12.63
2019-02-09T23:00:26.757Z,8.50
2019-02-09T23:02:59.293Z,13.28
2019-02-09T23:06:14.492Z,11.28
2019-02-09T23:08:46.390Z,11.15
2019-02-09T23:11:18.128Z,16.30
2019-02-09T23:13:49.386Z,15.75
2019-02-09T23:16:22.154Z,13.53
2019-02-09T23:18:53.460Z,8.18
2019-02-09T23:21:24.883Z,11.00
2019-02-09T23:23:56.186Z,11.53
2019-02-09T23:26:27.438Z,16.57
2019-02-09T23:28:59.883Z,12.20
2019-02-09T23:31:37.003Z,14.23
2019-02-09T23:34:08.337Z,13.18
2019-02-09T23:36:39.640Z,9.20
2019-02-09T23:39:10.931Z,14.85
2019-02-09T23:41:42.249Z,13.48
2019-02-09T23:44:15.710Z,7.33
2019-02-09T23:46:47.109Z,10.23
2019-02-09T23:49:18.787Z,8.38
2019-02-09T23:51:50.168Z,10.63
2019-02-09T23:54:21.424Z,12.60
2019-02-09T23:56:52.837Z,12.63
2019-02-09T23:59:24.625Z,7.15
